createdAt,value
2022-08-07T00:02:39.984Z,4.45
2022-08-07T00:05:07.268Z,5.93
2022-08-07T00:07:41.188Z,7.35
2022-08-07T00:10:25.882Z,5.38
2022-08-07T00:13:01.213Z,4.80
2022-08-07T00:15:37.768Z,9.40
2022-08-07T00:18:23.960Z,9.23
2022-08-07T00:21:03.515Z,5.72
2022-08-07T00:23:41.687Z,6.40
2022-08-07T00:26:31.358Z,7.82
2022-08-07T00:29:03.263Z,7.18
2022-08-07T00:31:41.194Z,8.05
2022-08-07T00:34:11.764Z,8.57
2022-08-07T00:36:42.724Z,7.68
2022-08-07T00:39:17.214Z,7.53
2022-08-07T00:42:01.923Z,7.72
2022-08-07T00:44:38.237Z,6.25
2022-08-07T00:47:15.642Z,7.18
2022-08-07T00:50:21.217Z,6.72
2022-08-07T00:52:53.137Z,5.85
2022-08-07T00:55:25.475Z,6.47
2022-08-07T00:58:14.494Z,6.47
2022-08-07T01:00:54.039Z,6.32
2022-08-07T01:03:54.711Z,5.22
2022-08-07T01:06:15.840Z,5.05
2022-08-07T01:08:53.299Z,4.55
2022-08-07T01:12:09.778Z,5.68
2022-08-07T01:14:16.878Z,7.25
2022-08-07T01:16:48.067Z,11.60
2022-08-07T01:19:24.043Z,5.57
2022-08-07T01:21:57.078Z,7.00
2022-08-07T01:24:31.832Z,8.40
2022-08-07T01:27:03.445Z,8.70
2022-08-07T01:29:35.405Z,6.25
2022-08-07T01:32:12.318Z,6.90
2022-08-07T01:34:47.678Z,5.43
2022-08-07T01:37:25.155Z,6.40
2022-08-07T01:40:01.148Z,5.35
2022-08-07T01:42:57.669Z,8.43
2022-08-07T01:45:36.892Z,7.18
2022-08-07T01:48:30.706Z,3.83
2022-08-07T01:51:24.574Z,7.07
2022-08-07T01:54:11.652Z,5.25
2022-08-07T01:56:59.092Z,4.45
2022-08-07T01:59:35.454Z,6.45
2022-08-07T02:02:11.425Z,3.40
2022-08-07T02:05:16.049Z,4.10
2022-08-07T02:08:13.946Z,4.40
2022-08-07T02:10:55.369Z,7.40
2022-08-07T02:14:00.730Z,8.75
2022-08-07T02:16:33.001Z,6.60
2022-08-07T02:20:06.899Z,4.88
2022-08-07T02:22:00.714Z,6.03
2022-08-07T02:24:34.382Z,4.97
2022-08-07T02:27:04.686Z,5.32
2022-08-07T02:29:43.436Z,6.18
2022-08-07T02:32:30.218Z,4.40
2022-08-07T02:35:02.208Z,5.70
2022-08-07T02:37:43.862Z,4.63
2022-08-07T02:40:31.077Z,8.98
2022-08-07T02:43:08.246Z,7.63
2022-08-07T02:46:00.931Z,12.00
2022-08-07T02:48:35.359Z,7.93
2022-08-07T02:51:29.078Z,8.88
2022-08-07T02:54:10.770Z,7.15
2022-08-07T02:56:45.514Z,6.38
2022-08-07T02:59:23.876Z,4.50
2022-08-07T03:02:03.137Z,6.25
2022-08-07T03:04:34.111Z,7.43
2022-08-07T03:07:10.671Z,4.47
2022-08-07T03:09:47.218Z,8.02
2022-08-07T03:12:22.651Z,5.40
2022-08-07T03:15:09.050Z,4.68
2022-08-07T03:17:53.621Z,6.00
2022-08-07T03:20:28.442Z,5.75
2022-08-07T03:23:00.250Z,5.82
2022-08-07T03:25:40.209Z,6.50
2022-08-07T03:28:37.431Z,6.05
2022-08-07T03:31:24.492Z,4.95
2022-08-07T03:34:03.690Z,6.68
2022-08-07T03:36:37.502Z,5.85
2022-08-07T03:39:15.364Z,4.18
2022-08-07T03:41:50.778Z,6.53
2022-08-07T03:44:34.247Z,4.90
2022-08-07T03:47:13.692Z,5.40
2022-08-07T03:49:53.530Z,5.35
2022-08-07T03:52:31.081Z,5.50
2022-08-07T03:55:07.839Z,7.97
2022-08-07T03:58:35.501Z,8.05
2022-08-07T04:00:46.156Z,9.18
2022-08-07T04:03:18.140Z,5.65
2022-08-07T04:05:58.653Z,6.68
2022-08-07T04:08:31.898Z,7.63
2022-08-07T04:11:15.009Z,3.80
2022-08-07T04:14:09.872Z,5.45
2022-08-07T04:16:58.710Z,6.80
2022-08-07T04:19:51.018Z,5.57
2022-08-07T04:22:22.887Z,7.97
2022-08-07T04:24:54.194Z,5.68
2022-08-07T04:27:25.710Z,7.10
2022-08-07T04:30:04.633Z,7.30
2022-08-07T04:32:47.935Z,6.00
2022-08-07T04:35:23.190Z,5.38
2022-08-07T04:38:03.092Z,8.38
2022-08-07T04:40:51.487Z,6.40
2022-08-07T04:44:10.452Z,9.18
2022-08-07T04:47:08.105Z,7.28
2022-08-07T04:50:04.019Z,6.88
2022-08-07T04:52:57.308Z,5.38
2022-08-07T04:58:16.148Z,5.18
2022-08-07T05:02:07.072Z,6.45
2022-08-07T05:05:52.561Z,7.07
2022-08-07T05:08:14.061Z,4.82
2022-08-07T05:10:51.183Z,6.65
2022-08-07T05:14:56.173Z,5.10
2022-08-07T05:16:34.503Z,6.80
2022-08-07T05:19:32.750Z,6.35
2022-08-07T05:22:12.479Z,9.07
2022-08-07T05:24:52.476Z,6.22
2022-08-07T05:28:03.224Z,10.20
2022-08-07T05:30:29.922Z,7.85
2022-08-07T05:33:03.270Z,7.82
2022-08-07T05:35:41.624Z,5.95
2022-08-07T05:38:59.660Z,6.18
2022-08-07T05:41:14.336Z,6.88
2022-08-07T05:44:12.071Z,6.40
2022-08-07T05:46:51.102Z,9.10
2022-08-07T05:49:26.780Z,7.68
2022-08-07T05:51:57.854Z,6.38
2022-08-07T05:54:53.224Z,5.15
2022-08-07T05:57:22.599Z,6.30
2022-08-07T06:00:02.005Z,5.82
2022-08-07T06:02:43.039Z,6.20
2022-08-07T06:05:16.763Z,4.68
2022-08-07T06:08:29.954Z,6.45
2022-08-07T06:10:45.667Z,4.82
2022-08-07T06:13:16.933Z,5.78
2022-08-07T06:15:50.660Z,7.07
2022-08-07T06:18:28.108Z,5.25
2022-08-07T06:22:16.732Z,6.80
2022-08-07T06:24:37.844Z,4.35
2022-08-07T06:29:18.716Z,6.07
2022-08-07T06:31:50.685Z,3.53
2022-08-07T06:34:30.419Z,8.00
2022-08-07T06:37:02.583Z,4.30
2022-08-07T06:40:17.715Z,6.03
2022-08-07T06:42:40.353Z,5.50
2022-08-07T06:45:21.259Z,6.85
2022-08-07T06:47:59.181Z,6.28
2022-08-07T06:50:47.986Z,4.93
2022-08-07T06:55:29.248Z,4.82
2022-08-07T06:56:18.907Z,4.97
2022-08-07T07:00:12.030Z,6.25
2022-08-07T07:01:50.971Z,6.30
2022-08-07T07:04:28.656Z,5.68
2022-08-07T07:07:10.631Z,7.25
2022-08-07T07:09:54.855Z,8.45
2022-08-07T07:12:48.484Z,4.53
2022-08-07T07:15:37.818Z,6.15
2022-08-07T07:18:47.187Z,6.50
2022-08-07T07:21:20.680Z,6.35
2022-08-07T07:24:09.660Z,6.00
2022-08-07T07:26:51.921Z,5.28
2022-08-07T07:29:56.318Z,5.07
2022-08-07T07:32:18.319Z,6.47
2022-08-07T07:34:53.534Z,5.28
2022-08-07T07:37:45.428Z,4.20
2022-08-07T07:40:21.003Z,5.90
2022-08-07T07:43:11.585Z,6.07
2022-08-07T07:46:38.104Z,8.48
2022-08-07T07:48:41.642Z,6.97
2022-08-07T07:51:19.883Z,4.38
2022-08-07T07:53:52.753Z,4.15
2022-08-07T07:56:30.047Z,7.72
2022-08-07T07:59:03.230Z,6.43
2022-08-07T08:02:05.238Z,5.43
2022-08-07T08:04:29.636Z,9.02
2022-08-07T08:07:02.823Z,6.82
2022-08-07T08:09:52.358Z,6.28
2022-08-07T08:12:52.088Z,7.65
2022-08-07T08:15:23.308Z,7.00
2022-08-07T08:18:18.049Z,4.50
2022-08-07T08:20:51.663Z,7.38
2022-08-07T08:23:44.246Z,5.32
2022-08-07T08:26:37.755Z,7.25
2022-08-07T08:29:09.960Z,7.15
2022-08-07T08:32:10.184Z,9.13
2022-08-07T08:34:39.107Z,5.70
2022-08-07T08:38:01.129Z,6.70
2022-08-07T08:40:04.701Z,6.45
2022-08-07T08:42:59.939Z,5.88
2022-08-07T08:45:59.563Z,4.22
2022-08-07T08:48:52.580Z,6.53
2022-08-07T08:51:49.580Z,7.43
2022-08-07T08:54:55.572Z,5.30
2022-08-07T08:58:24.713Z,6.57
2022-08-07T09:01:02.065Z,5.75
2022-08-07T09:03:55.259Z,6.15
2022-08-07T09:06:37.990Z,6.70
2022-08-07T09:09:30.092Z,3.60
2022-08-07T09:12:33.780Z,5.13
2022-08-07T09:16:20.183Z,5.65
2022-08-07T09:18:24.743Z,7.40
2022-08-07T09:22:09.992Z,7.30
2022-08-07T09:25:00.635Z,9.70
2022-08-07T09:28:00.092Z,9.82
2022-08-07T09:30:35.011Z,5.65
2022-08-07T09:33:52.469Z,10.63
2022-08-07T09:37:05.319Z,9.27
2022-08-07T09:39:57.882Z,5.70
2022-08-07T09:43:05.330Z,5.15
2022-08-07T09:47:49.424Z,6.82
2022-08-07T09:50:01.495Z,9.52
2022-08-07T09:52:34.217Z,7.43
2022-08-07T09:55:29.900Z,5.05
2022-08-07T09:58:42.308Z,6.90
2022-08-07T10:01:53.162Z,5.07
2022-08-07T10:04:33.311Z,4.38
2022-08-07T10:07:56.816Z,5.30
2022-08-07T10:11:07.763Z,5.57
2022-08-07T10:14:01.474Z,5.15
2022-08-07T10:16:53.651Z,5.57
2022-08-07T10:19:38.544Z,8.88
2022-08-07T10:22:24.897Z,6.10
2022-08-07T10:25:23.133Z,6.80
2022-08-07T10:28:16.979Z,3.35
2022-08-07T10:31:31.432Z,3.05
2022-08-07T10:34:33.643Z,3.47
2022-08-07T10:37:18.358Z,2.63
2022-08-07T10:40:14.160Z,3.08
2022-08-07T10:43:34.464Z,3.85
2022-08-07T10:46:20.844Z,3.05
2022-08-07T10:49:11.195Z,6.35
2022-08-07T10:52:01.748Z,4.07
2022-08-07T10:55:07.854Z,4.63
2022-08-07T10:58:05.511Z,4.28
2022-08-07T11:04:17.061Z,8.18
2022-08-07T11:08:00.338Z,6.68
2022-08-07T11:10:33.264Z,8.55
2022-08-07T11:14:41.755Z,8.77
2022-08-07T11:16:11.464Z,9.60
2022-08-07T11:18:53.914Z,9.38
2022-08-07T11:21:40.841Z,9.93
2022-08-07T11:24:22.072Z,9.40
2022-08-07T11:27:04.981Z,8.98
2022-08-07T11:30:17.695Z,7.38
2022-08-07T11:33:14.197Z,8.65
2022-08-07T11:36:14.579Z,9.68
2022-08-07T11:39:06.851Z,7.80
2022-08-07T11:42:21.491Z,6.00
2022-08-07T11:45:35.474Z,8.10
2022-08-07T11:48:33.219Z,7.00
2022-08-07T11:51:11.349Z,9.43
2022-08-07T11:54:38.564Z,6.38
2022-08-07T11:58:00.879Z,7.15
2022-08-07T12:00:42.323Z,7.20
2022-08-07T12:03:59.586Z,4.70
2022-08-07T12:07:09.070Z,5.85
2022-08-07T12:09:58.518Z,6.45
2022-08-07T12:12:56.791Z,6.57
2022-08-07T12:16:05.267Z,6.30
2022-08-07T12:19:08.726Z,7.63
2022-08-07T12:21:55.825Z,6.50
2022-08-07T12:26:21.636Z,6.25
2022-08-07T12:28:30.977Z,7.13
2022-08-07T12:31:10.222Z,8.35
2022-08-07T12:34:01.486Z,5.28
2022-08-07T12:36:33.963Z,5.97
2022-08-07T12:39:38.815Z,6.28
2022-08-07T12:42:00.093Z,8.07
2022-08-07T12:44:33.691Z,5.45
2022-08-07T12:47:21.496Z,7.75
2022-08-07T12:50:34.183Z,6.63
2022-08-07T12:54:03.021Z,6.95
2022-08-07T12:56:43.440Z,6.53
2022-08-07T12:59:33.376Z,7.70
2022-08-07T13:02:33.303Z,4.68
2022-08-07T13:06:05.032Z,6.75
2022-08-07T13:11:21.341Z,6.57
2022-08-07T13:13:58.267Z,4.65
2022-08-07T13:16:51.003Z,4.30
2022-08-07T13:19:50.629Z,4.38
2022-08-07T13:22:42.165Z,4.82
2022-08-07T13:25:24.318Z,4.63
2022-08-07T13:28:18.381Z,4.45
2022-08-07T13:31:32.190Z,5.22
2022-08-07T13:34:32.696Z,6.35
2022-08-07T13:37:20.056Z,6.82
2022-08-07T13:40:35.198Z,5.25
2022-08-07T13:43:03.863Z,6.28
2022-08-07T13:46:10.948Z,4.03
2022-08-07T13:48:34.497Z,3.95
2022-08-07T13:51:28.560Z,6.05
2022-08-07T13:54:03.078Z,5.93
2022-08-07T13:56:40.725Z,5.63
2022-08-07T13:59:27.135Z,4.35
2022-08-07T14:02:03.851Z,6.65
2022-08-07T14:04:49.696Z,4.72
2022-08-07T14:07:23.625Z,4.22
2022-08-07T14:10:12.052Z,6.30
2022-08-07T14:12:55.434Z,3.95
2022-08-07T14:15:42.220Z,3.17
2022-08-07T14:18:49.896Z,5.72
2022-08-07T14:22:03.508Z,4.78
2022-08-07T14:24:44.651Z,3.83
2022-08-07T14:28:12.930Z,4.80
2022-08-07T14:30:11.962Z,5.07
2022-08-07T14:33:04.624Z,6.10
2022-08-07T14:35:45.579Z,4.63
2022-08-07T14:38:31.297Z,5.40
2022-08-07T14:41:15.146Z,3.60
2022-08-07T14:43:57.810Z,4.43
2022-08-07T14:46:32.383Z,4.00
2022-08-07T14:49:17.273Z,6.13
2022-08-07T14:54:54.056Z,3.55
2022-08-07T14:57:29.006Z,3.80
2022-08-07T15:00:20.601Z,3.22
2022-08-07T15:12:10.672Z,3.00
2022-08-07T15:15:22.418Z,3.10
2022-08-07T15:20:55.154Z,2.78
2022-08-07T15:26:34.948Z,2.60
2022-08-07T15:30:10.162Z,3.25
2022-08-07T15:32:05.215Z,2.05
2022-08-07T15:38:04.797Z,3.63
2022-08-07T15:40:35.443Z,2.45
2022-08-07T15:43:33.065Z,2.10
2022-08-07T15:49:15.524Z,3.08
2022-08-07T15:54:41.038Z,2.25
2022-08-07T15:57:27.962Z,2.30
2022-08-07T16:00:07.755Z,3.00
2022-08-07T16:02:47.005Z,2.53
2022-08-07T16:05:23.075Z,2.47
2022-08-07T16:08:32.778Z,2.10
2022-08-07T16:11:27.265Z,3.05
2022-08-07T16:14:19.457Z,1.98
2022-08-07T16:17:15.027Z,3.15
2022-08-07T16:20:34.302Z,2.85
2022-08-07T16:23:54.064Z,2.55
2022-08-07T16:26:30.833Z,1.58
2022-08-07T16:30:05.379Z,3.05
2022-08-07T16:32:33.218Z,2.90
2022-08-07T16:35:59.394Z,2.40
2022-08-07T16:38:57.330Z,2.20
2022-08-07T16:41:41.509Z,2.22
2022-08-07T16:44:55.455Z,2.38
2022-08-07T16:47:56.533Z,1.98
2022-08-07T16:51:13.406Z,3.08
2022-08-07T16:54:02.945Z,2.83
2022-08-07T16:56:46.168Z,2.97
2022-08-07T16:59:46.962Z,1.90
2022-08-07T17:02:51.242Z,1.77
2022-08-07T17:06:19.876Z,3.35
2022-08-07T17:09:04.334Z,2.50
2022-08-07T17:12:01.547Z,1.50
2022-08-07T17:15:01.746Z,1.92
2022-08-07T17:17:48.349Z,1.77
2022-08-07T17:20:38.627Z,2.13
2022-08-07T17:23:39.136Z,4.63
2022-08-07T17:26:30.705Z,2.33
2022-08-07T17:30:14.048Z,1.85
2022-08-07T17:32:58.550Z,2.92
2022-08-07T17:35:51.177Z,2.25
2022-08-07T17:38:33.859Z,2.55
2022-08-07T17:42:00.762Z,2.90
2022-08-07T17:44:06.500Z,2.50
2022-08-07T17:47:16.587Z,2.50
2022-08-07T17:50:02.963Z,2.17
2022-08-07T17:52:40.336Z,2.60
2022-08-07T17:55:55.620Z,2.83
2022-08-07T17:58:30.686Z,2.95
2022-08-07T18:01:20.879Z,2.88
2022-08-07T18:04:31.155Z,2.35
2022-08-07T18:07:22.672Z,2.30
2022-08-07T18:10:07.602Z,2.13
2022-08-07T18:13:20.568Z,2.10
2022-08-07T18:16:31.110Z,2.20
2022-08-07T18:21:12.558Z,2.78
2022-08-07T18:22:16.953Z,2.00
2022-08-07T18:24:59.197Z,1.98
2022-08-07T18:27:50.454Z,1.80
2022-08-07T18:30:36.860Z,2.67
2022-08-07T18:33:18.780Z,2.30
2022-08-07T18:36:17.073Z,2.38
2022-08-07T18:40:08.819Z,2.47
2022-08-07T18:42:17.559Z,1.90
2022-08-07T18:45:44.365Z,2.05
2022-08-07T18:48:06.980Z,2.35
2022-08-07T18:51:15.678Z,2.10
2022-08-07T18:54:04.452Z,2.30
2022-08-07T18:56:39.273Z,2.58
2022-08-07T18:59:59.040Z,2.55
2022-08-07T19:02:56.608Z,2.40
2022-08-07T19:06:04.193Z,3.00
2022-08-07T19:08:52.347Z,4.00
2022-08-07T19:12:04.062Z,2.47
2022-08-07T19:14:53.819Z,2.70
2022-08-07T19:17:59.463Z,3.63
2022-08-07T19:21:46.629Z,3.05
2022-08-07T19:24:11.398Z,3.22
2022-08-07T19:28:58.666Z,4.57
2022-08-07T19:31:00.404Z,2.83
2022-08-07T19:33:00.576Z,3.30
2022-08-07T19:35:34.519Z,3.13
2022-08-07T19:38:16.731Z,3.50
2022-08-07T19:40:51.514Z,3.45
2022-08-07T19:43:50.076Z,3.58
2022-08-07T19:46:26.651Z,4.10
2022-08-07T19:49:06.873Z,4.70
2022-08-07T19:51:52.591Z,6.93
2022-08-07T19:54:31.282Z,4.32
2022-08-07T19:58:02.108Z,4.78
2022-08-07T20:00:08.887Z,4.45
2022-08-07T20:03:02.552Z,4.55
2022-08-07T20:06:00.351Z,6.82
2022-08-07T20:08:31.448Z,5.20
2022-08-07T20:11:14.992Z,5.28
2022-08-07T20:14:01.248Z,5.72
2022-08-07T20:16:36.651Z,4.32
2022-08-07T20:19:10.365Z,4.13
2022-08-07T20:21:48.303Z,4.65
2022-08-07T20:24:28.707Z,7.97
2022-08-07T20:27:05.266Z,7.57
2022-08-07T20:30:00.330Z,6.25
2022-08-07T20:32:45.372Z,4.50
2022-08-07T20:35:21.980Z,6.57
2022-08-07T20:37:59.789Z,5.57
2022-08-07T20:40:45.065Z,5.38
2022-08-07T20:43:26.645Z,7.53
2022-08-07T20:46:29.729Z,5.32
2022-08-07T20:51:50.267Z,6.28
2022-08-07T20:54:29.688Z,3.58
2022-08-07T20:57:08.389Z,6.32
2022-08-07T21:00:07.107Z,5.38
2022-08-07T21:02:53.878Z,2.58
2022-08-07T21:05:51.461Z,3.15
2022-08-07T21:08:43.896Z,2.67
2022-08-07T21:11:22.036Z,3.05
2022-08-07T21:14:32.905Z,3.63
2022-08-07T21:18:03.823Z,2.55
2022-08-07T21:20:05.565Z,2.80
2022-08-07T21:22:45.019Z,2.67
2022-08-07T21:25:21.427Z,3.05
2022-08-07T21:28:09.049Z,2.85
2022-08-07T21:30:51.131Z,2.92
2022-08-07T21:33:41.362Z,3.72
2022-08-07T21:39:45.357Z,2.03
2022-08-07T21:42:46.814Z,2.90
2022-08-07T21:46:09.794Z,2.75
2022-08-07T21:49:01.612Z,2.03
2022-08-07T21:51:51.363Z,1.75
2022-08-07T21:55:07.403Z,1.60
2022-08-07T21:58:02.323Z,2.50
2022-08-07T22:00:34.175Z,1.50
2022-08-07T22:03:31.981Z,1.20
2022-08-07T22:09:26.583Z,1.77
2022-08-07T22:12:12.402Z,1.88
2022-08-07T22:18:03.808Z,2.85
2022-08-07T22:20:51.776Z,1.75
2022-08-07T22:23:26.377Z,1.95
2022-08-07T22:26:32.121Z,2.05
2022-08-07T22:29:05.046Z,1.65
2022-08-07T22:31:59.230Z,4.35
2022-08-07T22:35:03.200Z,3.78
2022-08-07T22:38:06.211Z,3.03
2022-08-07T22:40:48.767Z,1.98
2022-08-07T22:43:31.452Z,2.53
2022-08-07T22:46:46.809Z,2.08
2022-08-07T22:49:54.903Z,1.75
2022-08-07T22:53:00.309Z,1.92
2022-08-07T22:58:43.675Z,2.28
2022-08-07T23:01:49.994Z,2.45
2022-08-07T23:04:57.057Z,1.63
2022-08-07T23:07:46.453Z,2.58
2022-08-07T23:10:36.497Z,3.40
2022-08-07T23:13:29.128Z,1.30
2022-08-07T23:16:46.926Z,1.50
2022-08-07T23:19:52.158Z,2.35
2022-08-07T23:22:45.503Z,1.88
2022-08-07T23:25:44.373Z,1.30
2022-08-07T23:28:21.816Z,2.33
2022-08-07T23:31:18.827Z,1.65
2022-08-07T23:34:37.539Z,2.60
2022-08-07T23:37:29.355Z,2.28
2022-08-07T23:40:28.142Z,2.28
2022-08-07T23:43:37.626Z,1.05
2022-08-07T23:46:40.293Z,1.63
2022-08-07T23:49:25.022Z,1.80
2022-08-07T23:53:01.917Z,1.23
2022-08-07T23:55:52.739Z,1.50
2022-08-07T23:58:54.692Z,1.67
